Weather at Sevastopol Naval Institute Helipad

Public forecast

Using degrees Celsius for public forecast. Weather courtesy of forecast.io.

Closest aviation weather report (METAR) to Sevastopol Naval Institute Helipad

Closest report is Anapa Vityazevo Airport, 166.4 nm (308.2 km) E.

2024/06/22 12:00 (retrieved 32 minutes ago)

URKA 221200Z 34005MPS 300V030 CAVOK 27/14 Q1012 R03/010070 NOSIG RMK QFE755/1006

Closest aviation forecast (TAF) to Sevastopol Naval Institute Helipad

Closest forecast is Anapa Vityazevo Airport, 166.4 nm (308.2 km) E.

2024/06/22 12:21 (retrieved 11 minutes ago)

TAF TAF URKA 221047Z 2212/2312 36006G12MPS 9999 SCT030 BECMG 2216/2218 05003G08MPS CAVOK TEMPO 2306/2312 29006G12MPS